Search for airport 
image banner adimage banner adimage banner ad
image banner ad

74CN - Camatta Ranch Airstrip

Located in Paso Robles, United States

ICAO - 74CN, IATA -

Data provided by Airmate  

General information

Coordinates: N35°28'35" W120°18'32"
Elevation is 1358 feet MSL.
 
View others Airports in California

Operational data

Special qualification required
Current time UTC:
Current local time:
Weather at : KPRB - Paso Robles Muni ( 36 km )
METAR: KPRB 210953Z AUTO 00000KT 10SM CLR 13/09 A2990 RMK AO2 SLP115 T01330094
TAF: KPRB 210551Z 2106/2206 28008KT P6SM SKC FM211300 VRB03KT 6SM BR VCFG SCT002 FM211700 19006KT P6SM SKC FM212100 20015G25KT P6SM SKC FM220200 21012KT P6SM SKC
View NOTAMs / SUP AIP / TFR affecting this airport [VIEW]
Communications frequencies: [VIEW]

Runways:

RWY identifierQFULength (ft)Width (ft)SurfaceLDA (ft)
11251535ASPH
29251535ASPH

Airport contact information

Address: Paso Robles United States

Satellite view of 74CN